Terminal Aerodrome Forecast
Issued by NWS Wilmington, OH

Current Version | Previous Version | Graphics & Text | Print | Product List | Glossary On
Versions: 1 2 3 4 5 6 7 8 9 10 11 12 13 14 15 16 17 18 19 20
000
FTUS41 KILN 280500
TAFCMH
TAF
KCMH 280536Z 2806/2906 26006KT P6SM SCT050 SCT100 BKN250
     FM280900 VRB03KT P6SM SCT100 BKN250
     FM281200 05005KT P6SM SCT250
     FM281500 07006KT P6SM SCT025
     FM281800 09006KT P6SM SCT040=

USA.gov is the U.S. government's official web portal to all federal, state and local government web resources and services.